Time;durP1;ratioP1;P1;durP2;ratioP2;P2;SDS_P1;SDS_P2;PMS_P1;PMS_P2;Temp;Humidity;BMP_temperature;BMP_pressure;BME280_temperature;BME280_humidity;BME280_pressure;Samples;Min_cycle;Max_cycle;Signal;HPM_P1;HPM_P2
2022/11/17 00:01:47;;;;;;;0.52;0.52;;;11.10;99.90;;;;;;5025364;28;20210;-76
2022/11/17 00:04:14;;;;;;;0.80;0.80;;;13.50;99.90;;;;;;5007868;28;20720;-75
2022/11/17 00:06:40;;;;;;;0.20;0.20;;;11.10;99.90;;;;;;5027486;28;20013;-75
2022/11/17 00:09:16;;;;;;;0.40;0.40;;;11.00;99.90;;;;;;5030614;28;20029;-75
2022/11/17 00:14:33;;;;;;;0.52;0.52;;;11.00;99.90;;;;;;5039517;28;20028;-76
2022/11/17 00:17:00;;;;;;;0.15;0.15;;;11.00;99.90;;;;;;5036094;28;20025;-75
2022/11/17 00:22:10;;;;;;;38.45;17.45;;;10.90;99.90;;;;;;5037352;28;20116;-76
2022/11/17 00:24:35;;;;;;;0.20;0.20;;;10.80;99.90;;;;;;5036794;28;20089;-74
2022/11/17 00:27:01;;;;;;;0.20;0.20;;;10.90;99.90;;;;;;5037840;28;20018;-74
2022/11/17 00:29:30;;;;;;;0.40;0.40;;;10.80;99.90;;;;;;5035571;28;20109;-74
2022/11/17 00:34:40;;;;;;;0.20;0.20;;;10.90;99.90;;;;;;5039385;28;20052;-75
2022/11/17 00:37:10;;;;;;;0.30;0.30;;;10.80;99.90;;;;;;5041272;28;20045;-74
2022/11/17 00:39:37;;;;;;;1.17;1.17;;;10.80;99.90;;;;;;5038623;28;20519;-75
2022/11/17 00:42:07;;;;;;;0.50;0.50;;;10.90;99.90;;;;;;5038559;28;20017;-74
2022/11/17 00:44:33;;;;;;;0.20;0.20;;;10.80;99.90;;;;;;5036576;28;20133;-74
2022/11/17 00:46:59;;;;;;;6.72;6.40;;;10.80;99.90;;;;;;5028367;28;20037;-74
2022/11/17 00:49:25;;;;;;;0.20;0.20;;;10.90;99.90;;;;;;5038297;28;20414;-75
2022/11/17 00:51:54;;;;;;;0.20;0.20;;;10.90;99.90;;;;;;5039030;28;20010;-74
2022/11/17 00:54:20;;;;;;;0.20;0.20;;;10.90;99.90;;;;;;5033495;28;20518;-75
2022/11/17 00:56:46;;;;;;;0.20;0.20;;;10.90;99.90;;;;;;5032085;28;20021;-74
2022/11/17 00:59:13;;;;;;;0.20;0.20;;;10.90;99.90;;;;;;5038838;28;20092;-75
2022/11/17 01:01:39;;;;;;;0.40;0.40;;;10.90;99.90;;;;;;5037157;28;20021;-74
2022/11/17 01:04:06;;;;;;;0.30;0.30;;;10.90;99.90;;;;;;5036110;28;20037;-75
2022/11/17 01:06:43;;;;;;;0.20;0.20;;;10.90;99.90;;;;;;5028554;28;20028;-75
2022/11/17 01:09:13;;;;;;;0.20;0.20;;;10.90;99.90;;;;;;5041503;28;20109;-74
2022/11/17 01:11:40;;;;;;;0.63;0.63;;;10.90;99.90;;;;;;5031692;28;20039;-74
2022/11/17 01:14:06;;;;;;;0.20;0.20;;;10.90;99.90;;;;;;5037322;28;20029;-74
2022/11/17 01:16:32;;;;;;;0.20;0.20;;;10.90;99.90;;;;;;5041887;28;20022;-76
2022/11/17 01:19:02;;;;;;;0.20;0.20;;;10.80;99.90;;;;;;5039549;28;20032;-75
2022/11/17 01:21:30;;;;;;;0.20;0.20;;;10.80;99.90;;;;;;5031407;28;20034;-75
2022/11/17 01:23:58;;;;;;;0.20;0.20;;;10.80;99.90;;;;;;5037951;28;20116;-74
2022/11/17 01:26:27;;;;;;;0.30;0.30;;;10.70;99.90;;;;;;5029773;28;20037;-75
2022/11/17 01:28:55;;;;;;;0.20;0.20;;;10.60;99.90;;;;;;5042461;28;20022;-74
2022/11/17 01:31:26;;;;;;;2.67;2.58;;;10.60;99.90;;;;;;5041035;28;20040;-74
2022/11/17 01:33:57;;;;;;;0.20;0.20;;;10.70;99.90;;;;;;5038814;28;20305;-74
2022/11/17 01:36:27;;;;;;;0.15;0.15;;;10.60;99.90;;;;;;5013881;28;20089;-74
2022/11/17 01:38:53;;;;;;;2.38;2.28;;;10.60;99.90;;;;;;5040264;28;20045;-74
2022/11/17 01:41:27;;;;;;;0.20;0.20;;;10.60;99.90;;;;;;5021944;28;20032;-74
2022/11/17 01:43:56;;;;;;;0.20;0.20;;;10.60;99.90;;;;;;5040271;28;20252;-74
2022/11/17 01:46:29;;;;;;;0.20;0.20;;;10.60;99.90;;;;;;5035682;28;20029;-74
2022/11/17 01:49:09;;;;;;;0.68;0.68;;;10.70;99.90;;;;;;5036946;28;20674;-74
2022/11/17 01:51:40;;;;;;;0.20;0.20;;;10.70;99.90;;;;;;5040219;28;20052;-74
2022/11/17 01:54:07;;;;;;;0.30;0.30;;;10.40;99.90;;;;;;5033070;28;20029;-74
2022/11/17 01:56:39;;;;;;;0.82;0.82;;;10.60;99.90;;;;;;5039225;28;20044;-74
2022/11/17 01:59:21;;;;;;;0.63;0.63;;;10.60;99.90;;;;;;5039748;28;20018;-74
2022/11/17 02:01:55;;;;;;;0.10;0.10;;;10.50;99.90;;;;;;5039346;28;20075;-74
2022/11/17 02:04:33;;;;;;;0.10;0.10;;;10.60;99.90;;;;;;5037579;28;20030;-74
2022/11/17 02:07:12;;;;;;;0.20;0.20;;;10.60;99.90;;;;;;5040973;28;20040;-74
2022/11/17 02:09:40;;;;;;;0.20;0.20;;;10.50;99.90;;;;;;5034741;28;20222;-73
2022/11/17 02:12:10;;;;;;;0.20;0.20;;;10.50;99.90;;;;;;5031543;28;20017;-76
2022/11/17 02:14:36;;;;;;;13.10;11.90;;;10.50;99.90;;;;;;5038290;28;20022;-74
2022/11/17 02:17:02;;;;;;;0.10;0.10;;;10.50;99.90;;;;;;5036466;28;20059;-74
2022/11/17 02:19:34;;;;;;;0.25;0.25;;;10.50;99.90;;;;;;5037498;28;20141;-73
2022/11/17 02:22:37;;;;;;;0.20;0.20;;;10.50;99.90;;;;;;5036715;28;20079;-73
2022/11/17 02:25:29;;;;;;;0.20;0.20;;;10.50;99.90;;;;;;5041911;28;20040;-74
2022/11/17 02:28:07;;;;;;;0.73;0.73;;;10.50;99.90;;;;;;5038192;28;20037;-74
2022/11/17 02:30:58;;;;;;;0.30;0.30;;;10.40;99.90;;;;;;5041325;28;20207;-76
2022/11/17 02:33:42;;;;;;;3.63;3.50;;;10.50;99.90;;;;;;5040670;28;20068;-74
2022/11/17 02:36:13;;;;;;;;;;;10.50;99.90;;;;;;5041215;28;20049;-74
2022/11/17 02:39:07;;;;;;;4.65;2.50;;;10.70;99.90;;;;;;5038759;28;19905;-75
2022/11/17 02:41:43;;;;;;;0.10;0.10;;;10.50;99.90;;;;;;5029784;28;20048;-74
2022/11/17 02:44:36;;;;;;;4.78;4.57;;;10.50;99.90;;;;;;5038501;28;20072;-74
2022/11/17 02:47:30;;;;;;;0.90;0.90;;;10.50;99.90;;;;;;5021611;28;20053;-74
2022/11/17 02:50:04;;;;;;;0.15;0.15;;;10.50;99.90;;;;;;5037151;28;20025;-74
2022/11/17 02:52:30;;;;;;;0.20;0.20;;;10.40;99.90;;;;;;5021574;28;20029;-73
2022/11/17 02:55:04;;;;;;;13.32;12.48;;;10.40;99.90;;;;;;5032520;28;20029;-73
2022/11/17 02:57:35;;;;;;;8.73;8.30;;;10.40;99.90;;;;;;5021019;28;20029;-74
2022/11/17 03:00:19;;;;;;;9.10;8.65;;;10.40;99.90;;;;;;5020463;28;20014;-74
2022/11/17 03:03:00;;;;;;;0.20;0.20;;;10.50;99.90;;;;;;5020806;28;20125;-74
2022/11/17 03:05:40;;;;;;;0.20;0.20;;;10.50;99.90;;;;;;5021580;28;20025;-74
2022/11/17 03:08:28;;;;;;;0.20;0.20;;;10.50;99.90;;;;;;5019830;28;20030;-74
2022/11/17 03:11:06;;;;;;;0.10;0.10;;;10.50;99.90;;;;;;5008696;28;20666;-74
2022/11/17 03:14:19;;;;;;;0.43;0.43;;;10.50;99.90;;;;;;5023208;28;20512;-76
2022/11/17 03:16:48;;;;;;;0.65;0.65;;;10.50;99.90;;;;;;4920124;29;20052;-74
2022/11/17 03:19:18;;;;;;;0.20;0.20;;;10.60;99.90;;;;;;4920466;29;20102;-74
2022/11/17 03:21:50;;;;;;;0.13;0.13;;;10.60;99.90;;;;;;4921084;29;20043;-74
2022/11/17 03:24:22;;;;;;;0.20;0.20;;;10.60;99.90;;;;;;4919113;29;20126;-74
2022/11/17 03:26:55;;;;;;;0.20;0.20;;;10.50;99.90;;;;;;4923348;29;20653;-74
2022/11/17 03:29:25;;;;;;;0.25;0.25;;;10.60;99.90;;;;;;4939845;29;20047;-74
2022/11/17 03:31:57;;;;;;;0.20;0.20;;;10.60;99.90;;;;;;4940972;29;20031;-74
2022/11/17 03:34:26;;;;;;;0.20;0.20;;;10.60;99.90;;;;;;4926971;29;20099;-74
2022/11/17 03:36:58;;;;;;;11.20;5.80;;;10.60;99.90;;;;;;4939019;29;20020;-74
2022/11/17 03:39:33;;;;;;;0.30;0.30;;;10.60;99.90;;;;;;4940588;29;20071;-75
2022/11/17 03:42:07;;;;;;;0.10;0.10;;;10.60;99.90;;;;;;4927752;29;20376;-74
2022/11/17 03:44:38;;;;;;;3.13;3.03;;;10.60;99.90;;;;;;4930719;29;20040;-73
2022/11/17 03:47:06;;;;;;;0.65;0.65;;;10.60;99.90;;;;;;4930952;29;20167;-73
2022/11/17 03:49:49;;;;;;;0.35;0.35;;;10.50;99.90;;;;;;4931535;29;20038;-73
2022/11/17 03:52:16;;;;;;;0.20;0.20;;;10.50;99.90;;;;;;4971657;28;20042;-74
2022/11/17 03:54:42;;;;;;;1.30;1.30;;;10.50;99.90;;;;;;5030002;28;20029;-74
2022/11/17 03:57:19;;;;;;;0.20;0.20;;;10.50;99.90;;;;;;5023930;28;20018;-74
2022/11/17 04:00:09;;;;;;;0.20;0.20;;;10.50;99.90;;;;;;5021158;28;20250;-73
2022/11/17 04:02:34;;;;;;;0.20;0.20;;;10.50;99.90;;;;;;5003780;28;20031;-74
2022/11/17 04:05:06;;;;;;;0.20;0.20;;;10.50;99.90;;;;;;5021492;28;20399;-73
2022/11/17 04:07:39;;;;;;;0.20;0.20;;;10.50;99.90;;;;;;5021522;28;20476;-75
2022/11/17 04:10:07;;;;;;;1.42;1.42;;;10.50;99.90;;;;;;5020560;28;20021;-74
2022/11/17 04:18:03;;;;;;;0.38;0.38;;;10.40;99.90;;;;;;5020605;28;20036;-74
2022/11/17 04:20:35;;;;;;;0.20;0.20;;;10.40;99.90;;;;;;5025166;28;20550;-74
2022/11/17 04:23:06;;;;;;;0.20;0.20;;;10.30;99.90;;;;;;5022193;28;20108;-75
2022/11/17 04:28:38;;;;;;;0.20;0.20;;;10.30;99.90;;;;;;5020425;28;20737;-74
2022/11/17 04:31:15;;;;;;;0.20;0.20;;;10.30;99.90;;;;;;5021478;28;20085;-75
2022/11/17 04:33:46;;;;;;;0.20;0.20;;;10.30;99.90;;;;;;5019815;28;20034;-74
2022/11/17 04:36:15;;;;;;;0.17;0.17;;;10.20;99.90;;;;;;5023346;28;20103;-74
2022/11/17 04:38:46;;;;;;;0.20;0.20;;;10.20;99.90;;;;;;5025258;28;20264;-75
2022/11/17 04:43:59;;;;;;;0.30;0.30;;;10.10;99.90;;;;;;5039403;28;20346;-74
2022/11/17 04:46:27;;;;;;;0.10;0.10;;;10.10;99.90;;;;;;5042977;28;20021;-74
2022/11/17 04:48:54;;;;;;;0.10;0.10;;;10.00;99.90;;;;;;5040143;28;20013;-74
2022/11/17 04:51:20;;;;;;;0.20;0.20;;;10.00;99.90;;;;;;5037730;28;20029;-74
2022/11/17 04:53:47;;;;;;;0.20;0.20;;;10.00;99.90;;;;;;5021906;28;20040;-74
2022/11/17 04:56:13;;;;;;;0.20;0.20;;;9.90;99.90;;;;;;5034082;28;20030;-74
2022/11/17 04:58:39;;;;;;;0.10;0.10;;;9.80;99.90;;;;;;5023349;28;20477;-74
2022/11/17 05:01:11;;;;;;;0.20;0.20;;;9.80;99.90;;;;;;5026715;28;20056;-74
2022/11/17 05:03:44;;;;;;;0.10;0.10;;;9.70;99.90;;;;;;5009173;28;20053;-74
2022/11/17 05:06:13;;;;;;;2.95;2.85;;;9.60;99.90;;;;;;5023572;28;20033;-74
2022/11/17 05:08:39;;;;;;;0.20;0.20;;;9.60;99.90;;;;;;5023653;28;20034;-75
2022/11/17 05:13:51;;;;;;;0.10;0.10;;;9.40;99.90;;;;;;5023572;28;20036;-75
2022/11/17 05:19:05;;;;;;;0.20;0.20;;;9.30;99.90;;;;;;5023683;28;20399;-74
2022/11/17 05:21:31;;;;;;;0.10;0.10;;;9.30;99.90;;;;;;5023151;28;20257;-75
2022/11/17 05:23:57;;;;;;;0.20;0.20;;;9.30;99.90;;;;;;5023079;28;20041;-74
2022/11/17 05:26:29;;;;;;;0.10;0.10;;;9.30;99.90;;;;;;5004375;28;20029;-74
2022/11/17 05:28:56;;;;;;;0.10;0.10;;;9.20;99.90;;;;;;5023042;28;20037;-74
2022/11/17 05:31:23;;;;;;;0.10;0.10;;;9.10;99.90;;;;;;5021562;28;20017;-74
2022/11/17 05:33:49;;;;;;;0.20;0.20;;;9.10;99.90;;;;;;5003427;28;20025;-73
2022/11/17 05:36:16;;;;;;;0.25;0.25;;;9.10;99.90;;;;;;5022055;28;20017;-75
2022/11/17 05:38:42;;;;;;;5.65;5.35;;;9.10;99.90;;;;;;5022143;28;20052;-74
2022/11/17 05:41:08;;;;;;;0.20;0.20;;;9.10;99.90;;;;;;5021972;28;20097;-75
2022/11/17 05:43:34;;;;;;;0.15;0.15;;;9.10;99.90;;;;;;5021272;28;20235;-74
2022/11/17 05:45:59;;;;;;;0.10;0.10;;;9.00;99.90;;;;;;5021311;28;20085;-74
2022/11/17 05:48:25;;;;;;;0.20;0.20;;;8.90;99.90;;;;;;5024990;28;20044;-74
2022/11/17 05:50:55;;;;;;;0.20;0.20;;;7.60;99.90;;;;;;5027244;28;20026;-74
2022/11/17 05:53:22;;;;;;;0.20;0.20;;;8.80;99.90;;;;;;5027061;28;20025;-76
2022/11/17 05:55:49;;;;;;;0.20;0.20;;;8.80;99.90;;;;;;5007823;28;20037;-76
2022/11/17 05:58:21;;;;;;;0.10;0.10;;;8.80;99.90;;;;;;5022906;28;20303;-74
2022/11/17 06:00:47;;;;;;;0.20;0.20;;;8.80;99.90;;;;;;5022857;28;20026;-74
2022/11/17 06:03:30;;;;;;;0.17;0.17;;;8.80;99.90;;;;;;5004474;28;20563;-74
2022/11/17 06:05:57;;;;;;;0.10;0.10;;;8.80;99.90;;;;;;5024095;28;20068;-74
2022/11/17 06:08:22;;;;;;;2.25;2.17;;;8.80;99.90;;;;;;5023984;28;20029;-75
2022/11/17 06:10:48;;;;;;;2.05;1.95;;;9.60;99.90;;;;;;5027892;28;20044;-74
2022/11/17 06:13:14;;;;;;;0.10;0.10;;;8.80;99.90;;;;;;5021922;28;20017;-74
2022/11/17 06:15:40;;;;;;;0.10;0.10;;;8.80;99.90;;;;;;5021516;28;20029;-74
2022/11/17 06:18:13;;;;;;;0.10;0.10;;;8.80;99.90;;;;;;5023619;28;20070;-75
2022/11/17 06:20:43;;;;;;;0.10;0.10;;;8.90;99.90;;;;;;5020947;28;20034;-74
2022/11/17 06:23:10;;;;;;;0.10;0.10;;;8.90;99.90;;;;;;5021568;28;20623;-74
2022/11/17 06:25:37;;;;;;;0.50;0.50;;;9.00;99.90;;;;;;5024250;28;20013;-75
2022/11/17 06:28:08;;;;;;;0.20;0.20;;;9.00;99.90;;;;;;5021851;28;20104;-74
2022/11/17 06:30:37;;;;;;;0.20;0.20;;;9.20;99.90;;;;;;5022577;28;20323;-75
2022/11/17 06:33:06;;;;;;;0.25;0.25;;;9.10;99.90;;;;;;5022751;28;20049;-75
2022/11/17 06:35:33;;;;;;;0.20;0.20;;;9.10;99.90;;;;;;5025548;28;20037;-75
2022/11/17 06:38:00;;;;;;;0.10;0.10;;;9.20;99.90;;;;;;5023676;28;20297;-74
2022/11/17 06:40:26;;;;;;;0.20;0.20;;;9.30;99.90;;;;;;5027027;28;20136;-75
2022/11/17 06:43:08;;;;;;;0.10;0.10;;;9.40;99.90;;;;;;5024309;28;20025;-75
2022/11/17 06:45:39;;;;;;;0.10;0.10;;;9.40;99.90;;;;;;5022970;28;20032;-74
2022/11/17 06:48:06;;;;;;;0.40;0.40;;;9.50;99.90;;;;;;5025387;28;20282;-75
2022/11/17 06:50:33;;;;;;;0.20;0.20;;;9.50;99.90;;;;;;5023366;28;20261;-75
2022/11/17 06:53:00;;;;;;;0.20;0.20;;;9.40;99.90;;;;;;5021551;28;20390;-76
2022/11/17 06:55:26;;;;;;;0.20;0.20;;;9.50;99.90;;;;;;5023094;28;20026;-75
2022/11/17 06:57:59;;;;;;;0.20;0.20;;;9.40;99.90;;;;;;5022280;28;20053;-75
2022/11/17 07:00:25;;;;;;;0.80;0.80;;;9.50;99.90;;;;;;5022363;28;20041;-75
2022/11/17 07:02:51;;;;;;;0.20;0.20;;;9.60;99.90;;;;;;5022160;28;20021;-75
2022/11/17 07:05:17;;;;;;;0.45;0.45;;;;;;;;;;5022562;28;20026;-75
2022/11/17 07:07:43;;;;;;;0.28;0.28;;;9.80;99.90;;;;;;5005566;28;20226;-74
2022/11/17 07:10:08;;;;;;;0.30;0.30;;;9.90;99.90;;;;;;5023551;28;20025;-75
2022/11/17 07:12:34;;;;;;;0.22;0.22;;;10.00;99.90;;;;;;5027370;28;20032;-75
2022/11/17 07:15:00;;;;;;;0.20;0.20;;;10.00;99.90;;;;;;5032597;28;20452;-75
2022/11/17 07:17:27;;;;;;;0.20;0.20;;;10.20;99.90;;;;;;5036093;28;20527;-74
2022/11/17 07:19:54;;;;;;;0.65;0.65;;;10.10;99.90;;;;;;5041499;28;20025;-76
2022/11/17 07:22:20;;;;;;;0.20;0.20;;;10.20;99.90;;;;;;5040962;28;20109;-75
2022/11/17 07:24:45;;;;;;;0.20;0.20;;;10.20;99.90;;;;;;5033853;28;20489;-76
2022/11/17 07:27:31;;;;;;;0.10;0.10;;;10.30;99.90;;;;;;5037431;28;20040;-78
2022/11/17 07:29:57;;;;;;;0.20;0.20;;;10.30;99.90;;;;;;5033006;28;20021;-75
2022/11/17 07:32:23;;;;;;;0.20;0.20;;;10.40;99.90;;;;;;5033839;28;20420;-76
2022/11/17 07:34:53;;;;;;;0.20;0.20;;;10.40;99.90;;;;;;5039441;28;20030;-79
2022/11/17 07:37:20;;;;;;;0.10;0.10;;;10.40;99.90;;;;;;5034352;28;20081;-75
2022/11/17 07:39:45;;;;;;;0.20;0.20;;;10.50;99.90;;;;;;5036996;28;20025;-76
2022/11/17 07:42:11;;;;;;;0.20;0.20;;;10.50;99.90;;;;;;5022285;28;20026;-75
2022/11/17 07:44:37;;;;;;;0.20;0.20;;;10.50;99.90;;;;;;5023319;28;20299;-75
2022/11/17 07:47:02;;;;;;;0.55;0.55;;;10.60;99.90;;;;;;5025122;28;20112;-75
2022/11/17 07:49:28;;;;;;;0.20;0.20;;;10.70;99.90;;;;;;5025460;28;20022;-76
2022/11/17 07:51:54;;;;;;;0.20;0.20;;;10.70;99.90;;;;;;5022092;28;20032;-74
2022/11/17 07:54:20;;;;;;;0.30;0.30;;;10.80;99.90;;;;;;5002868;28;20033;-76
2022/11/17 07:56:45;;;;;;;2.13;2.08;;;10.90;99.90;;;;;;5021915;28;20034;-75
2022/11/17 07:59:11;;;;;;;8.25;7.72;;;10.90;99.90;;;;;;5020655;28;20045;-75
2022/11/17 08:01:37;;;;;;;0.20;0.20;;;10.90;99.90;;;;;;5032029;28;20016;-74
2022/11/17 08:04:04;;;;;;;0.20;0.20;;;11.10;99.90;;;;;;5032280;28;20033;-76
2022/11/17 08:06:30;;;;;;;0.30;0.30;;;11.10;99.90;;;;;;5030769;28;20025;-75
2022/11/17 08:08:56;;;;;;;0.17;0.17;;;11.20;99.90;;;;;;5037139;28;20033;-77
2022/11/17 08:11:21;;;;;;;0.20;0.20;;;11.20;99.90;;;;;;5036120;28;20014;-75
2022/11/17 08:13:49;;;;;;;0.20;0.20;;;11.30;99.90;;;;;;5000740;28;20018;-74
2022/11/17 08:16:15;;;;;;;0.90;0.90;;;11.40;99.90;;;;;;5007947;28;20045;-75
2022/11/17 08:18:41;;;;;;;0.13;0.13;;;11.40;99.90;;;;;;5016555;28;20036;-74
2022/11/17 08:21:10;;;;;;;0.20;0.20;;;11.40;99.90;;;;;;5029233;28;20546;-74
2022/11/17 08:23:36;;;;;;;0.15;0.15;;;11.50;99.90;;;;;;5024649;28;20041;-75
2022/11/17 08:26:05;;;;;;;1.15;1.15;;;11.60;99.90;;;;;;5003328;28;20183;-76
2022/11/17 08:28:32;;;;;;;0.20;0.20;;;11.70;99.90;;;;;;4999332;28;20124;-76
2022/11/17 08:31:00;;;;;;;0.10;0.10;;;11.90;99.90;;;;;;5020012;28;20040;-77
2022/11/17 08:33:26;;;;;;;0.20;0.20;;;11.90;99.90;;;;;;5006898;28;20029;-83
2022/11/17 08:35:51;;;;;;;0.35;0.35;;;12.10;99.90;;;;;;5023925;28;20232;-76
2022/11/17 08:38:17;;;;;;;0.20;0.20;;;12.20;99.90;;;;;;5022661;28;20040;-80
2022/11/17 08:40:44;;;;;;;0.60;0.52;;;12.20;99.90;;;;;;5023807;28;20025;-77
2022/11/17 08:43:10;;;;;;;0.20;0.20;;;12.20;99.90;;;;;;5020789;28;20029;-81
2022/11/17 08:45:36;;;;;;;3.05;2.88;;;12.30;99.90;;;;;;5018333;28;20025;-79
2022/11/17 08:48:03;;;;;;;0.20;0.20;;;12.40;99.90;;;;;;5018476;28;20029;-80
2022/11/17 08:50:28;;;;;;;0.20;0.20;;;12.50;99.90;;;;;;5001037;28;20551;-79
2022/11/17 08:52:54;;;;;;;0.10;0.10;;;12.60;99.90;;;;;;5020578;28;20029;-80
2022/11/17 08:55:20;;;;;;;0.10;0.10;;;13.00;99.90;;;;;;5021787;28;20295;-77
2022/11/17 08:57:46;;;;;;;0.20;0.20;;;13.10;99.90;;;;;;5002038;28;20608;-78
2022/11/17 09:00:12;;;;;;;1.15;1.15;;;13.10;99.90;;;;;;5019725;28;20026;-78
2022/11/17 09:02:37;;;;;;;0.20;0.20;;;13.10;99.90;;;;;;5019264;28;20024;-78
2022/11/17 09:05:04;;;;;;;0.20;0.20;;;13.20;99.90;;;;;;5019663;28;20339;-78
2022/11/17 09:07:34;;;;;;;0.20;0.20;;;10.30;99.90;;;;;;5023959;28;20036;-78
2022/11/17 09:10:00;;;;;;;0.17;0.17;;;13.70;99.90;;;;;;5024180;28;20365;-78
2022/11/17 09:12:26;;;;;;;0.10;0.10;;;13.90;99.90;;;;;;5028213;28;20037;-81
2022/11/17 09:14:52;;;;;;;0.32;0.32;;;;;;;;;;5023216;28;20060;-75
2022/11/17 09:17:18;;;;;;;0.20;0.20;;;15.80;99.90;;;;;;5027218;28;20053;-84
2022/11/17 09:19:43;;;;;;;0.85;0.85;;;14.30;99.90;;;;;;5024059;28;20579;-74
2022/11/17 09:22:09;;;;;;;0.20;0.20;;;14.60;99.90;;;;;;5024710;28;20065;-80
2022/11/17 09:24:35;;;;;;;0.20;0.20;;;14.30;99.90;;;;;;5028879;28;20049;-83
2022/11/17 09:27:02;;;;;;;0.20;0.20;;;14.30;99.90;;;;;;5024412;28;20022;-75
2022/11/17 09:29:29;;;;;;;0.30;0.30;;;14.30;99.90;;;;;;5021718;28;20013;-76
2022/11/17 09:31:54;;;;;;;0.73;0.73;;;14.30;99.90;;;;;;5021300;28;20104;-75
2022/11/17 09:34:20;;;;;;;0.13;0.13;;;14.20;99.90;;;;;;5019633;28;20120;-76
2022/11/17 09:36:49;;;;;;;0.20;0.20;;;14.40;99.90;;;;;;5001282;28;20034;-74
2022/11/17 09:39:15;;;;;;;1.85;1.75;;;14.20;99.90;;;;;;5001059;28;20624;-75
2022/11/17 09:41:55;;;;;;;4.18;2.92;;;14.20;99.90;;;;;;5001767;28;20029;-76
2022/11/17 09:44:40;;;;;;;0.40;0.40;;;14.30;99.90;;;;;;5001411;28;20695;-76
2022/11/17 09:47:28;;;;;;;1.50;1.40;;;11.70;99.90;;;;;;5001456;28;20029;-75
2022/11/17 09:50:14;;;;;;;0.13;0.13;;;14.30;99.90;;;;;;5000256;28;20319;-75
2022/11/17 09:53:02;;;;;;;0.20;0.20;;;14.50;99.90;;;;;;4999665;28;20026;-78
2022/11/17 09:55:44;;;;;;;0.20;0.20;;;15.00;99.90;;;;;;4999654;28;20108;-77
2022/11/17 09:58:16;;;;;;;0.10;0.10;;;14.60;99.90;;;;;;4982316;28;20524;-74
2022/11/17 10:00:47;;;;;;;0.30;0.30;;;15.00;99.90;;;;;;4999561;28;20501;-75
2022/11/17 10:03:22;;;;;;;0.45;0.45;;;14.70;99.90;;;;;;4999589;28;20092;-74
2022/11/17 10:05:49;;;;;;;2.00;1.98;;;14.00;99.90;;;;;;4999440;28;20021;-75
2022/11/17 10:08:26;;;;;;;0.30;0.30;;;14.80;99.90;;;;;;4999377;28;20048;-75
2022/11/17 10:10:52;;;;;;;2.28;2.17;;;15.00;99.90;;;;;;4999570;28;20103;-76
2022/11/17 10:13:30;;;;;;;0.20;0.20;;;15.30;99.90;;;;;;4999138;28;20779;-82
2022/11/17 10:16:11;;;;;;;0.20;0.20;;;15.10;99.90;;;;;;4998499;28;20129;-77
2022/11/17 10:18:38;;;;;;;4.40;2.67;;;15.20;99.90;;;;;;4999266;28;20022;-74
2022/11/17 10:21:05;;;;;;;0.20;0.20;;;15.10;99.90;;;;;;5015025;28;20046;-75
2022/11/17 10:23:43;;;;;;;0.10;0.10;;;15.10;99.90;;;;;;5018543;28;20440;-77
2022/11/17 10:26:12;;;;;;;0.13;0.13;;;15.10;99.90;;;;;;5000579;28;20026;-77
2022/11/17 10:28:38;;;;;;;0.10;0.10;;;15.00;99.90;;;;;;5018995;28;20026;-77
2022/11/17 10:31:11;;;;;;;0.43;0.43;;;14.90;99.90;;;;;;5018780;28;20096;-77
2022/11/17 10:33:40;;;;;;;0.65;0.65;;;12.20;99.90;;;;;;5018199;28;20037;-79
2022/11/17 10:36:20;;;;;;;0.10;0.10;;;15.00;99.90;;;;;;5018405;28;20576;-76
2022/11/17 10:38:50;;;;;;;1.45;1.45;;;14.90;99.90;;;;;;5018422;28;20022;-76
2022/11/17 10:41:23;;;;;;;0.20;0.20;;;15.00;99.90;;;;;;5018195;28;20429;-75
2022/11/17 10:44:00;;;;;;;1.75;1.65;;;14.90;99.90;;;;;;5018303;28;20036;-77
2022/11/17 10:46:27;;;;;;;1.92;1.83;;;15.50;99.90;;;;;;5018436;28;20033;-83
2022/11/17 10:49:03;;;;;;;1.42;1.33;;;15.60;99.90;;;;;;5018731;28;20045;-74
2022/11/17 10:51:31;;;;;;;0.52;0.52;;;15.60;99.90;;;;;;5018834;28;20036;-78
2022/11/17 10:54:02;;;;;;;0.30;0.30;;;15.60;99.90;;;;;;5000867;28;20432;-78
2022/11/17 10:59:13;;;;;;;1.02;1.02;;;15.80;99.90;;;;;;5015378;28;20046;-75
2022/11/17 11:01:41;;;;;;;5.25;4.85;;;15.90;99.90;;;;;;5012264;28;20025;-74
2022/11/17 11:04:35;;;;;;;0.10;0.10;;;16.30;99.90;;;;;;5016318;28;20025;-74
2022/11/17 11:07:18;;;;;;;2.55;2.45;;;16.60;99.90;;;;;;5015779;28;20018;-75
2022/11/17 11:10:03;;;;;;;6.95;6.22;;;16.80;99.90;;;;;;5015814;28;20026;-75
2022/11/17 11:13:00;;;;;;;1.08;1.08;;;17.00;99.90;;;;;;5017115;28;20496;-75
2022/11/17 11:15:33;;;;;;;5.15;4.78;;;17.20;99.90;;;;;;5017258;28;20026;-74
2022/11/17 11:17:58;;;;;;;2.17;1.55;;;16.40;99.90;;;;;;5017601;28;20021;-74
2022/11/17 11:20:44;;;;;;;0.40;0.40;;;17.30;99.90;;;;;;5017238;28;20209;-75
2022/11/17 11:23:17;;;;;;;0.50;0.50;;;17.50;99.90;;;;;;5017188;28;20057;-74
2022/11/17 11:26:41;;;;;;;0.10;0.10;;;17.20;99.90;;;;;;5017266;28;20565;-74
2022/11/17 11:29:26;;;;;;;1.30;1.20;;;17.40;99.90;;;;;;4882613;29;20378;-75
2022/11/17 11:32:11;;;;;;;0.32;0.32;;;17.60;99.90;;;;;;4898145;29;20165;-76
2022/11/17 11:34:52;;;;;;;0.47;0.47;;;17.80;99.90;;;;;;4898022;29;20024;-74
2022/11/17 11:37:17;;;;;;;0.13;0.13;;;17.70;99.90;;;;;;4898016;29;20492;-74
2022/11/17 11:40:14;;;;;;;0.75;0.63;;;17.90;99.90;;;;;;4897885;29;20036;-76
2022/11/17 11:43:00;;;;;;;0.20;0.20;;;18.00;99.90;;;;;;4898558;28;20024;-75
2022/11/17 11:46:04;;;;;;;0.63;0.63;;;18.10;99.90;;;;;;4881831;29;20539;-78
2022/11/17 11:48:32;;;;;;;;;;;18.40;99.90;;;;;;4898598;29;20163;-75
2022/11/17 11:51:19;;;;;;;0.10;0.10;;;18.00;99.90;;;;;;4897942;29;20303;-74
2022/11/17 11:54:03;;;;;;;0.90;0.90;;;17.90;99.90;;;;;;4897484;29;20323;-74
2022/11/17 11:56:38;;;;;;;0.10;0.10;;;18.00;99.90;;;;;;4898113;29;20135;-76
2022/11/17 11:59:12;;;;;;;0.10;0.10;;;17.90;99.90;;;;;;4899676;29;20051;-74
2022/11/17 12:01:58;;;;;;;0.10;0.10;;;17.90;99.90;;;;;;4900296;29;20111;-76
2022/11/17 12:04:24;;;;;;;0.30;0.30;;;17.70;99.90;;;;;;4936552;29;20548;-85
2022/11/17 12:07:03;;;;;;;0.10;0.10;;;16.10;99.90;;;;;;5014206;28;20690;-83
2022/11/17 12:09:41;;;;;;;0.10;0.10;;;17.60;99.90;;;;;;5018732;28;20021;-75
2022/11/17 12:12:19;;;;;;;0.10;0.10;;;17.60;99.90;;;;;;5017321;28;20026;-78
2022/11/17 12:15:07;;;;;;;0.20;0.20;;;17.50;99.90;;;;;;5018732;28;20530;-75
2022/11/17 12:17:51;;;;;;;0.68;0.68;;;17.50;99.90;;;;;;5017403;28;20045;-77
2022/11/17 12:20:35;;;;;;;5.32;2.15;;;17.40;99.90;;;;;;5017425;28;20017;-75
2022/11/17 12:23:29;;;;;;;1.33;1.23;;;17.50;99.90;;;;;;5016871;28;20041;-76
2022/11/17 12:25:58;;;;;;;0.10;0.10;;;17.50;99.90;;;;;;5015572;28;20057;-75
2022/11/17 12:28:37;;;;;;;0.10;0.10;;;17.70;99.90;;;;;;5012006;28;20596;-75
2022/11/17 12:31:08;;;;;;;0.55;0.55;;;17.80;99.90;;;;;;5019017;28;20409;-75
2022/11/17 12:33:52;;;;;;;0.10;0.10;;;17.90;99.90;;;;;;5019871;28;20133;-74
2022/11/17 12:36:26;;;;;;;0.10;0.10;;;18.00;99.90;;;;;;5025768;28;20018;-75
2022/11/17 12:38:54;;;;;;;0.47;0.47;;;17.80;99.90;;;;;;5022195;28;20021;-78
2022/11/17 12:41:48;;;;;;;0.10;0.10;;;18.20;99.90;;;;;;5017653;28;20045;-74
2022/11/17 12:44:32;;;;;;;0.20;0.20;;;18.30;99.90;;;;;;5016271;28;20113;-75
2022/11/17 12:47:18;;;;;;;0.20;0.20;;;18.30;99.90;;;;;;5018748;28;20741;-83
2022/11/17 12:50:22;;;;;;;0.10;0.10;;;18.20;99.50;;;;;;5018021;28;20128;-77
2022/11/17 12:53:05;;;;;;;0.10;0.10;;;18.20;99.70;;;;;;5019400;28;20033;-79
2022/11/17 12:55:31;;;;;;;0.10;0.10;;;18.00;99.90;;;;;;5018104;28;20417;-86
2022/11/17 12:58:03;;;;;;;0.10;0.10;;;17.90;99.90;;;;;;5022517;28;20133;-80
2022/11/17 13:00:38;;;;;;;0.10;0.10;;;17.80;99.90;;;;;;5032640;28;20026;-78
2022/11/17 13:03:20;;;;;;;0.10;0.10;;;17.80;99.90;;;;;;5022598;28;20022;-85
2022/11/17 13:06:09;;;;;;;0.10;0.10;;;17.80;99.90;;;;;;5028865;28;20085;-74
2022/11/17 13:08:35;;;;;;;0.10;0.10;;;17.80;99.90;;;;;;5023757;28;20100;-77
2022/11/17 13:11:13;;;;;;;0.10;0.10;;;17.90;99.70;;;;;;5023916;28;20017;-78
2022/11/17 13:13:40;;;;;;;0.40;0.40;;;17.80;99.80;;;;;;5020691;28;20017;-89
2022/11/17 13:16:18;;;;;;;0.43;0.43;;;15.20;99.10;;;;;;5022127;28;20079;-91
2022/11/17 13:18:44;;;;;;;0.10;0.10;;;17.90;99.90;;;;;;5023217;28;20013;-74
2022/11/17 13:21:28;;;;;;;1.52;1.42;;;18.00;99.90;;;;;;5023896;28;20026;-74
2022/11/17 13:23:55;;;;;;;0.10;0.10;;;18.00;99.90;;;;;;5020609;28;20034;-89
2022/11/17 13:26:37;;;;;;;0.10;0.10;;;17.90;98.90;;;;;;5025082;28;20018;-89
2022/11/17 13:29:09;;;;;;;0.15;0.15;;;17.90;99.60;;;;;;5020176;28;20037;-74
2022/11/17 13:31:35;;;;;;;0.10;0.10;;;18.00;98.70;;;;;;5020687;28;20018;-74
2022/11/17 13:34:15;;;;;;;0.10;0.10;;;18.20;98.90;;;;;;5020820;28;20071;-75
2022/11/17 13:36:58;;;;;;;0.10;0.10;;;18.40;97.40;;;;;;5021086;28;20028;-75
2022/11/17 13:39:26;;;;;;;0.10;0.10;;;18.40;97.60;;;;;;5021149;28;20010;-76
2022/11/17 13:41:52;;;;;;;0.55;0.55;;;18.60;97.80;;;;;;5019910;28;20040;-85
2022/11/17 13:44:26;;;;;;;0.20;0.20;;;18.60;97.20;;;;;;5021414;28;20057;-74